Chemroad Wing — 3EAB8 — position and weather

sailwx.info

Track history (hours):
 
Tides and Currents Weather Stations Pressure Air Temp Water Temp Dewpoint Dewpoint Depression Visibility Wind Speed Wind Dir Waves Ship Positions

Chemroad Wing

Last reported at 2014-Sep-30 23:32 UTC. Time now 2014-Oct-01 08:24 UTC.
Position N 32°14' E 119°12'.

Length 170 m; draft 8.1 m.

Type: Ship (hazmat cat B). MMSI: 357740000.

Date/timePositionNaut miles runAvg speedWind from/ knotsBaromVisibWave heightAir tempDewpointWater temp
2014-Sep-30 23:32N 32°14' E 119°12'  
2014-Sep-27 23:26N 32°20' E 119°46'15 2.4
2014-Sep-27 17:06N 32°07' E 119°55'610.4
2014-Sep-27 16:32N 32°01' E 119°58'10 9.8
2014-Sep-27 15:33N 31°57' E 120°08'8 7.9
2014-Sep-27 14:33N 31°57' E 120°17'9 9.0
2014-Sep-27 13:33N 31°59' E 120°27'4 4.3
2014-Sep-27 12:33N 32°02' E 120°31'1110.6
2014-Sep-27 11:34N 32°01' E 120°44'1110.8
2014-Sep-27 10:33N 31°53' E 120°53'1111.4
2014-Sep-27 09:33N 31°46' E 121°04'1413.8
2014-Sep-27 08:33N 31°37' E 121°16'1312.7
2014-Sep-27 07:33N 31°29' E 121°27'9 9.0
2014-Sep-27 06:33N 31°23' E 121°35'9 9.0
2014-Sep-27 05:33N 31°18' E 121°44'1813.0
2014-Sep-27 04:09N 31°06' E 121°60'812.8
2014-Sep-27 03:33N 31°03' E 122°08'9 8.8
2014-Sep-27 02:33N 31°02' E 122°19'9 9.1
2014-Sep-27 01:34N 31°00' E 122°29'10 9.1
2014-Sep-27 00:31N 31°03' E 122°40'4 0.5
2014-Sep-26 16:31N 31°03' E 122°44'1513.8
2014-Sep-26 15:25N 31°01' E 123°02'1515.6
2014-Sep-26 14:27N 30°50' E 123°14'1914.5
2014-Sep-26 13:07N 30°31' E 123°21'814.5
2014-Sep-26 12:33N 30°23' E 123°20'1513.2
2014-Sep-26 11:26N 30°09' E 123°18'1313.1
2014-Sep-26 10:26N 30°02' E 123°05'1213.3
2014-Sep-26 09:32N 29°55' E 122°54'1313.0
2014-Sep-26 08:33N 29°49' E 122°41'1413.6
2014-Sep-26 07:33N 29°43' E 122°27'1413.7
2014-Sep-26 06:33N 29°49' E 122°13'1312.9
2014-Sep-26 05:33N 29°56' E 122°01'1211.6
2014-Sep-26 04:33N 29°59' E 121°48'1 0.1
2014-Sep-25 05:33N 29°59' E 121°47'3 3.3
2014-Sep-25 04:33N 29°58' E 121°51'1110.8
2014-Sep-25 03:33N 29°56' E 122°03'19 9.4
2014-Sep-25 01:33N 29°45' E 122°20'1 1.0
2014-Sep-25 00:12N 29°45' E 122°22'0 0.1
2014-Sep-24 22:24N 29°45' E 122°22'0 0.1
2014-Sep-24 21:30N 29°45' E 122°22'0 0.1
2014-Sep-24 19:18N 29°45' E 122°22'0 0.1
2014-Sep-24 16:11N 29°45' E 122°22'0 0.0
2014-Sep-24 10:06N 29°45' E 122°22'0 0.0
2014-Sep-24 03:24N 29°45' E 122°22'0 0.1
2014-Sep-24 01:30N 29°45' E 122°22'0 0.1
2014-Sep-23 23:24N 29°45' E 122°22'0 0.1
2014-Sep-23 20:06N 29°45' E 122°22'0 0.1
2014-Sep-23 19:18N 29°45' E 122°22'0 0.0
2014-Sep-23 08:12N 29°45' E 122°22'0 0.0
2014-Sep-23 07:24N 29°45' E 122°22'0 0.1
2014-Sep-23 04:06N 29°45' E 122°22'0 0.1
2014-Sep-23 03:05N 29°45' E 122°22'1 0.8
2014-Sep-23 01:33N 29°45' E 122°23'1110.4
2014-Sep-23 00:31N 29°39' E 122°34'1512.9
2014-Sep-22 23:21N 29°24' E 122°31'1012.6
2014-Sep-22 22:32N 29°14' E 122°30'  
Track history (hours):
 
Tides and Currents Weather Stations Pressure Air Temp Water Temp Dewpoint Dewpoint Depression Visibility Wind Speed Wind Dir Waves Ship Positions

Chemroad Wing

Last reported at 2014-Sep-30 23:32 UTC. Time now 2014-Oct-01 08:24 UTC.
Position N 32°14' E 119°12'.

Length 170 m; draft 8.1 m.

Type: Ship (hazmat cat B). MMSI: 357740000.

Date/timePositionNaut miles runAvg speedWind from/ knotsBaromVisibWave heightAir tempDewpointWater temp
2014-Sep-30 23:32N 32°14' E 119°12'  
2014-Sep-27 23:26N 32°20' E 119°46'15 2.4
2014-Sep-27 17:06N 32°07' E 119°55'610.4
2014-Sep-27 16:32N 32°01' E 119°58'10 9.8
2014-Sep-27 15:33N 31°57' E 120°08'8 7.9
2014-Sep-27 14:33N 31°57' E 120°17'9 9.0
2014-Sep-27 13:33N 31°59' E 120°27'4 4.3
2014-Sep-27 12:33N 32°02' E 120°31'1110.6
2014-Sep-27 11:34N 32°01' E 120°44'1110.8
2014-Sep-27 10:33N 31°53' E 120°53'1111.4
2014-Sep-27 09:33N 31°46' E 121°04'1413.8
2014-Sep-27 08:33N 31°37' E 121°16'1312.7
2014-Sep-27 07:33N 31°29' E 121°27'9 9.0
2014-Sep-27 06:33N 31°23' E 121°35'9 9.0
2014-Sep-27 05:33N 31°18' E 121°44'1813.0
2014-Sep-27 04:09N 31°06' E 121°60'812.8
2014-Sep-27 03:33N 31°03' E 122°08'9 8.8
2014-Sep-27 02:33N 31°02' E 122°19'9 9.1
2014-Sep-27 01:34N 31°00' E 122°29'10 9.1
2014-Sep-27 00:31N 31°03' E 122°40'4 0.5
2014-Sep-26 16:31N 31°03' E 122°44'1513.8
2014-Sep-26 15:25N 31°01' E 123°02'1515.6
2014-Sep-26 14:27N 30°50' E 123°14'1914.5
2014-Sep-26 13:07N 30°31' E 123°21'814.5
2014-Sep-26 12:33N 30°23' E 123°20'1513.2
2014-Sep-26 11:26N 30°09' E 123°18'1313.1
2014-Sep-26 10:26N 30°02' E 123°05'1213.3
2014-Sep-26 09:32N 29°55' E 122°54'1313.0
2014-Sep-26 08:33N 29°49' E 122°41'1413.6
2014-Sep-26 07:33N 29°43' E 122°27'1413.7
2014-Sep-26 06:33N 29°49' E 122°13'1312.9
2014-Sep-26 05:33N 29°56' E 122°01'1211.6
2014-Sep-26 04:33N 29°59' E 121°48'1 0.1
2014-Sep-25 05:33N 29°59' E 121°47'3 3.3
2014-Sep-25 04:33N 29°58' E 121°51'1110.8
2014-Sep-25 03:33N 29°56' E 122°03'19 9.4
2014-Sep-25 01:33N 29°45' E 122°20'1 1.0
2014-Sep-25 00:12N 29°45' E 122°22'0 0.1
2014-Sep-24 22:24N 29°45' E 122°22'0 0.1
2014-Sep-24 21:30N 29°45' E 122°22'0 0.1
2014-Sep-24 19:18N 29°45' E 122°22'0 0.1
2014-Sep-24 16:11N 29°45' E 122°22'0 0.0
2014-Sep-24 10:06N 29°45' E 122°22'0 0.0
2014-Sep-24 03:24N 29°45' E 122°22'0 0.1
2014-Sep-24 01:30N 29°45' E 122°22'0 0.1
2014-Sep-23 23:24N 29°45' E 122°22'0 0.1
2014-Sep-23 20:06N 29°45' E 122°22'0 0.1
2014-Sep-23 19:18N 29°45' E 122°22'0 0.0
2014-Sep-23 08:12N 29°45' E 122°22'0 0.0
2014-Sep-23 07:24N 29°45' E 122°22'0 0.1
2014-Sep-23 04:06N 29°45' E 122°22'0 0.1
2014-Sep-23 03:05N 29°45' E 122°22'1 0.8
2014-Sep-23 01:33N 29°45' E 122°23'1110.4
2014-Sep-23 00:31N 29°39' E 122°34'1512.9
2014-Sep-22 23:21N 29°24' E 122°31'1012.6
2014-Sep-22 22:32N 29°14' E 122°30'  

Dump ship's entire track history